Time;durP1;ratioP1;P1;durP2;ratioP2;P2;SDS_P1;SDS_P2;PMS_P1;PMS_P2;Temp;Humidity;BMP_temperature;BMP_pressure;BME280_temperature;BME280_humidity;BME280_pressure;Samples;Min_cycle;Max_cycle;Signal;HPM_P1;HPM_P2
2022/10/19 00:01:20;;;;;;;880.90;799.90;;;7.20;99.90;;;;;;4996981;28;20553;-85
2022/10/19 00:03:50;;;;;;;875.53;795.17;;;7.50;99.90;;;;;;4997449;28;20450;-85
2022/10/19 00:06:19;;;;;;;871.70;791.80;;;7.40;99.90;;;;;;4997551;28;20478;-85
2022/10/19 00:08:47;;;;;;;864.33;785.20;;;7.40;99.90;;;;;;4997518;28;20454;-85
2022/10/19 00:11:14;;;;;;;869.40;790.00;;;7.30;99.90;;;;;;4997766;28;20879;-85
2022/10/19 00:13:41;;;;;;;880.77;800.87;;;7.20;99.90;;;;;;4997312;28;20480;-85
2022/10/19 00:16:09;;;;;;;876.63;795.93;;;7.20;99.90;;;;;;4997666;28;20992;-85
2022/10/19 00:18:36;;;;;;;869.70;787.43;;;7.10;99.90;;;;;;4997465;28;20457;-85
2022/10/19 00:21:04;;;;;;;872.53;791.10;;;7.00;99.90;;;;;;4998242;28;20450;-85
2022/10/19 00:23:31;;;;;;;873.80;792.80;;;7.10;99.90;;;;;;4996671;28;20457;-85
2022/10/19 00:26:00;;;;;;;879.00;798.17;;;6.90;99.90;;;;;;4998253;28;20489;-85
2022/10/19 00:28:27;;;;;;;865.20;785.47;;;6.80;99.90;;;;;;4997525;28;20458;-85
2022/10/19 00:30:54;;;;;;;877.10;797.33;;;6.80;99.90;;;;;;4998265;28;20457;-85
2022/10/19 00:33:21;;;;;;;893.20;811.50;;;6.80;99.90;;;;;;4997351;28;20474;-85
2022/10/19 00:35:49;;;;;;;880.57;799.63;;;6.80;99.90;;;;;;4998631;28;20911;-85
2022/10/19 00:38:17;;;;;;;877.50;796.00;;;6.80;99.90;;;;;;4997721;28;20490;-85
2022/10/19 00:40:44;;;;;;;879.20;796.77;;;6.60;99.90;;;;;;4998805;28;20456;-85
2022/10/19 00:43:15;;;;;;;881.30;797.90;;;6.60;99.90;;;;;;4997397;28;20450;-83
2022/10/19 00:45:42;;;;;;;888.20;801.60;;;6.70;99.90;;;;;;4998036;28;20765;-85
2022/10/19 00:48:11;;;;;;;883.87;800.13;;;6.60;99.90;;;;;;4998243;28;20458;-85
2022/10/19 00:50:38;;;;;;;887.57;804.80;;;6.70;99.90;;;;;;4997276;28;20458;-85
2022/10/19 00:53:05;;;;;;;903.37;822.30;;;6.60;99.90;;;;;;4997081;28;20465;-85
2022/10/19 00:55:33;;;;;;;898.43;819.03;;;6.50;99.90;;;;;;4997637;28;20454;-85
2022/10/19 00:58:00;;;;;;;896.53;814.30;;;6.40;99.90;;;;;;4998087;28;20544;-85
2022/10/19 01:00:28;;;;;;;896.10;814.63;;;6.50;99.90;;;;;;4997360;28;20458;-85
2022/10/19 01:02:57;;;;;;;899.67;807.40;;;6.60;99.90;;;;;;4997600;28;20462;-85
2022/10/19 01:05:28;;;;;;;885.63;803.93;;;6.60;99.90;;;;;;4997106;28;20454;-85
2022/10/19 01:07:55;;;;;;;889.27;809.20;;;6.50;99.90;;;;;;4998156;28;20453;-85
2022/10/19 01:10:39;;;;;;;878.17;798.20;;;6.40;99.90;;;;;;4997977;28;20458;-85
2022/10/19 01:13:19;;;;;;;877.13;798.27;;;6.40;99.90;;;;;;4999948;28;20458;-85
2022/10/19 01:15:55;;;;;;;880.37;800.87;;;6.40;99.90;;;;;;5001403;28;20472;-85
2022/10/19 01:18:27;;;;;;;874.13;795.93;;;6.20;99.90;;;;;;5001701;28;20457;-85
2022/10/19 01:21:21;;;;;;;868.30;789.60;;;6.20;99.90;;;;;;5002067;28;20845;-85
2022/10/19 01:24:26;;;;;;;868.00;789.30;;;6.10;99.90;;;;;;5001234;28;20504;-85
2022/10/19 01:27:28;;;;;;;857.20;779.43;;;6.00;99.90;;;;;;5001913;28;20470;-85
2022/10/19 01:30:04;;;;;;;859.00;781.07;;;5.90;99.90;;;;;;5002274;28;20456;-85
2022/10/19 01:32:40;;;;;;;870.93;793.73;;;5.80;99.90;;;;;;5001940;28;20477;-85
2022/10/19 01:35:12;;;;;;;873.50;795.80;;;5.80;99.90;;;;;;5003748;28;20473;-85
2022/10/19 01:37:44;;;;;;;859.27;781.87;;;5.80;99.90;;;;;;5019470;28;20473;-85
2022/10/19 01:40:20;;;;;;;861.67;784.30;;;5.70;99.90;;;;;;5019901;28;20446;-85
2022/10/19 01:42:54;;;;;;;861.70;784.40;;;5.70;99.90;;;;;;5019725;28;20434;-85
2022/10/19 01:45:28;;;;;;;856.40;778.43;;;5.70;99.90;;;;;;5019387;28;20460;-85
2022/10/19 01:47:59;;;;;;;843.07;766.50;;;5.80;99.90;;;;;;5005529;28;20468;-85
2022/10/19 01:50:31;;;;;;;853.40;778.20;;;5.80;99.90;;;;;;5001582;28;20549;-84
2022/10/19 01:52:59;;;;;;;858.23;781.83;;;5.80;99.90;;;;;;5001562;28;20446;-85
2022/10/19 01:55:27;;;;;;;849.83;773.23;;;5.80;99.90;;;;;;5001387;28;20589;-85
2022/10/19 01:57:59;;;;;;;841.00;764.10;;;5.70;99.90;;;;;;5001288;28;20461;-85
2022/10/19 02:00:29;;;;;;;847.20;770.33;;;5.60;99.90;;;;;;5001290;28;20464;-85
2022/10/19 02:02:56;;;;;;;854.87;778.17;;;5.70;99.90;;;;;;5001928;28;20458;-85
2022/10/19 02:05:29;;;;;;;858.07;782.10;;;5.50;99.90;;;;;;5001266;28;20457;-86
2022/10/19 02:07:59;;;;;;;846.50;768.40;;;5.60;99.90;;;;;;4982686;28;20457;-86
2022/10/19 02:10:27;;;;;;;846.47;768.97;;;5.60;99.90;;;;;;4982500;28;20452;-85
2022/10/19 02:12:55;;;;;;;854.00;773.43;;;5.70;99.90;;;;;;4982544;28;20459;-85
2022/10/19 02:15:25;;;;;;;851.23;770.50;;;5.60;99.90;;;;;;4992570;28;20481;-85
2022/10/19 02:17:58;;;;;;;860.57;780.67;;;5.60;99.90;;;;;;5002009;28;20466;-85
2022/10/19 02:20:27;;;;;;;857.57;776.07;;;5.60;99.90;;;;;;5001205;28;20522;-85
2022/10/19 02:22:57;;;;;;;853.13;774.83;;;5.50;99.90;;;;;;5000876;28;20454;-85
2022/10/19 02:25:25;;;;;;;847.80;769.50;;;5.50;99.90;;;;;;5000508;28;20446;-85
2022/10/19 02:27:52;;;;;;;848.03;769.20;;;5.60;99.90;;;;;;5001134;28;20469;-85
2022/10/19 02:30:21;;;;;;;843.67;765.13;;;5.50;99.90;;;;;;5001115;28;20454;-85
2022/10/19 02:32:48;;;;;;;843.37;765.50;;;5.50;99.90;;;;;;5001490;28;20465;-85
2022/10/19 02:35:16;;;;;;;844.97;767.10;;;5.50;99.90;;;;;;5000349;28;20892;-85
2022/10/19 02:37:43;;;;;;;838.40;761.00;;;5.60;99.90;;;;;;5001072;28;20450;-85
2022/10/19 02:40:11;;;;;;;838.53;761.83;;;5.60;99.90;;;;;;5000987;28;20880;-85
2022/10/19 02:42:41;;;;;;;845.53;767.47;;;5.50;99.90;;;;;;5001152;28;20454;-85
2022/10/19 02:45:11;;;;;;;843.00;762.60;;;5.50;99.90;;;;;;5000899;28;20442;-85
2022/10/19 02:47:42;;;;;;;837.53;758.87;;;5.50;99.90;;;;;;5000047;28;20470;-86
2022/10/19 02:50:11;;;;;;;845.47;767.77;;;5.60;99.90;;;;;;5001340;28;20844;-85
2022/10/19 02:52:39;;;;;;;839.07;760.20;;;5.60;99.90;;;;;;5001301;28;20869;-85
2022/10/19 02:55:07;;;;;;;843.60;767.87;;;5.50;99.90;;;;;;5000377;28;20489;-86
2022/10/19 02:57:34;;;;;;;844.23;767.53;;;5.50;99.90;;;;;;5000860;28;20481;-86
2022/10/19 03:00:02;;;;;;;835.43;759.90;;;5.40;99.90;;;;;;5000974;28;20450;-85
2022/10/19 03:02:29;;;;;;;830.90;754.23;;;5.40;99.90;;;;;;5000767;28;20588;-85
2022/10/19 03:04:55;;;;;;;832.80;757.20;;;5.30;99.90;;;;;;5000328;28;20454;-85
2022/10/19 03:07:22;;;;;;;836.17;760.67;;;5.30;99.90;;;;;;5000670;28;20487;-85
2022/10/19 03:09:51;;;;;;;847.90;771.10;;;5.30;99.90;;;;;;5000654;28;20545;-85
2022/10/19 03:12:18;;;;;;;856.83;781.50;;;5.20;99.90;;;;;;5000514;28;20477;-86
2022/10/19 03:14:45;;;;;;;845.37;768.27;;;5.10;99.90;;;;;;4999643;28;20482;-85
2022/10/19 03:17:12;;;;;;;831.30;756.57;;;5.20;99.90;;;;;;5000217;28;20474;-85
2022/10/19 03:19:38;;;;;;;820.40;746.47;;;5.10;99.90;;;;;;5000886;28;20465;-86
2022/10/19 03:22:05;;;;;;;836.33;762.10;;;5.00;99.90;;;;;;5000845;28;20461;-85
2022/10/19 03:24:32;;;;;;;838.93;764.30;;;5.00;99.90;;;;;;5000189;28;20449;-85
2022/10/19 03:27:00;;;;;;;848.70;772.20;;;5.10;99.90;;;;;;5000261;28;20488;-86
2022/10/19 03:29:27;;;;;;;841.37;765.93;;;5.00;99.90;;;;;;5001098;28;20455;-85
2022/10/19 03:31:54;;;;;;;838.60;762.77;;;5.00;99.90;;;;;;5000422;28;20465;-86
2022/10/19 03:34:21;;;;;;;843.37;768.07;;;5.00;99.90;;;;;;4999481;28;20485;-85
2022/10/19 03:36:47;;;;;;;843.43;767.43;;;4.90;99.90;;;;;;4999890;28;21046;-85
2022/10/19 03:39:16;;;;;;;836.70;760.37;;;5.00;99.90;;;;;;5000113;28;20533;-85
2022/10/19 03:41:43;;;;;;;836.00;760.60;;;5.00;99.90;;;;;;5000370;28;20457;-86
2022/10/19 03:44:11;;;;;;;840.30;764.70;;;4.90;99.90;;;;;;4999912;28;20461;-85
2022/10/19 03:46:39;;;;;;;844.87;768.17;;;4.90;99.90;;;;;;5000481;28;20476;-85
2022/10/19 03:49:06;;;;;;;837.20;761.40;;;4.90;99.90;;;;;;5000677;28;20461;-86
2022/10/19 03:51:34;;;;;;;836.43;761.73;;;5.00;99.90;;;;;;5000851;28;20469;-85
2022/10/19 03:54:02;;;;;;;850.90;776.20;;;4.90;99.90;;;;;;4999609;28;20455;-85
2022/10/19 03:56:30;;;;;;;843.60;768.30;;;4.80;99.90;;;;;;4998814;28;20466;-85
2022/10/19 03:58:59;;;;;;;841.23;767.73;;;4.70;99.90;;;;;;4998845;28;20458;-85
2022/10/19 04:01:29;;;;;;;828.57;755.60;;;4.70;99.90;;;;;;5000208;28;20460;-86
2022/10/19 04:03:56;;;;;;;827.03;753.93;;;4.70;99.90;;;;;;5003552;28;20457;-84
2022/10/19 04:06:25;;;;;;;824.03;751.30;;;4.80;99.90;;;;;;5004006;28;20466;-85
2022/10/19 04:08:53;;;;;;;832.93;759.70;;;4.80;99.90;;;;;;4999513;28;20450;-86
2022/10/19 04:11:23;;;;;;;818.93;745.97;;;4.80;99.90;;;;;;5001683;28;20457;-85
2022/10/19 04:13:51;;;;;;;829.00;756.60;;;4.80;99.90;;;;;;4998266;28;20461;-85
2022/10/19 04:16:19;;;;;;;844.73;771.73;;;4.80;99.90;;;;;;4998207;28;20474;-86
2022/10/19 04:18:47;;;;;;;835.00;762.10;;;4.80;99.90;;;;;;4997910;28;20454;-86
2022/10/19 04:21:22;;;;;;;844.47;772.00;;;4.70;99.90;;;;;;4999196;28;20450;-85
2022/10/19 04:23:49;;;;;;;851.57;778.70;;;4.70;99.90;;;;;;4998485;28;20457;-86
2022/10/19 04:26:16;;;;;;;844.43;771.23;;;4.60;99.90;;;;;;4998716;28;20533;-86
2022/10/19 04:28:43;;;;;;;861.03;787.73;;;4.60;99.90;;;;;;4998827;28;20454;-86
2022/10/19 04:31:11;;;;;;;851.13;778.47;;;4.60;99.90;;;;;;4998786;28;20457;-86
2022/10/19 04:33:38;;;;;;;850.13;776.57;;;4.60;99.90;;;;;;4998620;28;20457;-86
2022/10/19 04:36:09;;;;;;;856.87;783.53;;;4.60;99.90;;;;;;4998023;28;20478;-86
2022/10/19 04:38:36;;;;;;;843.90;771.40;;;4.40;99.90;;;;;;4998931;28;20458;-85
2022/10/19 04:41:03;;;;;;;840.33;766.43;;;4.40;99.90;;;;;;4999187;28;20454;-86
2022/10/19 04:43:30;;;;;;;857.50;784.50;;;4.40;99.90;;;;;;4999154;28;20453;-86
2022/10/19 04:46:07;;;;;;;848.50;776.33;;;4.40;99.90;;;;;;4999135;28;20878;-88
2022/10/19 04:48:35;;;;;;;857.97;785.37;;;4.40;99.90;;;;;;4995972;28;20810;-86
2022/10/19 04:51:02;;;;;;;861.07;788.03;;;4.40;99.90;;;;;;4985721;28;20459;-86
2022/10/19 04:53:30;;;;;;;852.17;778.60;;;4.50;99.90;;;;;;4986346;28;20767;-86
2022/10/19 04:55:57;;;;;;;839.50;765.80;;;4.50;99.90;;;;;;4985558;28;20490;-85
2022/10/19 04:58:24;;;;;;;838.00;765.90;;;4.70;99.90;;;;;;4983952;28;20467;-86
2022/10/19 05:00:51;;;;;;;833.33;759.50;;;4.50;99.90;;;;;;5001056;28;20944;-86
2022/10/19 05:03:18;;;;;;;841.43;768.13;;;4.50;99.90;;;;;;4986752;28;20463;-86
2022/10/19 05:05:44;;;;;;;826.53;753.40;;;4.60;99.90;;;;;;5004923;28;20473;-85
2022/10/19 05:08:11;;;;;;;829.07;757.33;;;4.60;99.90;;;;;;5005116;28;20450;-86
2022/10/19 05:10:39;;;;;;;831.20;759.90;;;4.70;99.90;;;;;;5007051;28;20450;-86
2022/10/19 05:13:06;;;;;;;814.70;743.43;;;4.70;99.90;;;;;;5002831;28;20454;-86
2022/10/19 05:15:33;;;;;;;812.97;742.03;;;4.60;99.90;;;;;;5001018;28;20477;-86
2022/10/19 05:18:00;;;;;;;816.77;745.90;;;4.50;99.90;;;;;;5001097;28;20454;-86
2022/10/19 05:20:27;;;;;;;828.07;756.83;;;4.40;99.90;;;;;;5001087;28;20461;-87
2022/10/19 05:22:53;;;;;;;824.37;752.33;;;4.40;99.90;;;;;;5003274;28;20465;-86
2022/10/19 05:25:20;;;;;;;807.63;736.13;;;4.30;99.90;;;;;;5003395;28;20461;-85
2022/10/19 05:27:52;;;;;;;817.67;745.10;;;4.30;99.90;;;;;;5002116;28;20450;-86
2022/10/19 05:30:20;;;;;;;814.43;742.83;;;4.30;99.90;;;;;;5001990;28;20454;-86
2022/10/19 05:32:47;;;;;;;817.27;745.40;;;4.30;99.90;;;;;;5001495;28;20457;-85
2022/10/19 05:35:14;;;;;;;818.63;746.43;;;4.30;99.90;;;;;;5002005;28;20503;-86
2022/10/19 05:37:40;;;;;;;810.57;738.67;;;4.30;99.90;;;;;;4999909;28;20484;-85
2022/10/19 05:40:09;;;;;;;827.40;753.67;;;4.30;99.90;;;;;;5001291;28;20461;-85
2022/10/19 05:42:35;;;;;;;834.23;757.40;;;4.20;99.90;;;;;;5013338;28;20449;-86
2022/10/19 05:45:04;;;;;;;833.17;758.50;;;4.10;99.90;;;;;;5000947;28;20827;-85
2022/10/19 05:47:31;;;;;;;841.47;767.70;;;4.00;99.90;;;;;;4997703;28;20467;-85
2022/10/19 05:49:58;;;;;;;811.03;738.63;;;4.00;99.90;;;;;;4982228;28;20863;-85
2022/10/19 05:52:25;;;;;;;819.70;748.03;;;3.90;99.90;;;;;;4982302;28;20535;-85
2022/10/19 05:54:52;;;;;;;833.03;760.13;;;3.90;99.90;;;;;;5002132;28;20458;-85
2022/10/19 05:57:19;;;;;;;820.23;747.40;;;4.00;99.90;;;;;;5000509;28;21017;-86
2022/10/19 05:59:46;;;;;;;833.70;759.83;;;4.00;99.90;;;;;;5001917;28;20450;-86
2022/10/19 06:02:14;;;;;;;823.93;751.10;;;4.10;99.90;;;;;;5001572;28;20457;-86
2022/10/19 06:04:41;;;;;;;813.07;740.63;;;4.10;99.90;;;;;;5000885;28;20457;-85
2022/10/19 06:07:07;;;;;;;842.33;765.60;;;4.20;99.90;;;;;;5000657;28;20474;-85
2022/10/19 06:09:36;;;;;;;811.60;739.87;;;4.30;99.90;;;;;;5001087;28;20453;-86
2022/10/19 06:12:03;;;;;;;823.50;751.60;;;4.30;99.90;;;;;;5000521;28;20454;-85
2022/10/19 06:14:30;;;;;;;826.43;755.17;;;4.30;99.90;;;;;;4999358;28;20461;-86
2022/10/19 06:16:57;;;;;;;814.53;742.93;;;4.30;99.90;;;;;;5000734;28;20474;-86
2022/10/19 06:19:25;;;;;;;811.67;738.77;;;4.30;99.90;;;;;;5000504;28;20461;-85
2022/10/19 06:21:51;;;;;;;809.70;736.77;;;4.40;99.90;;;;;;5002303;28;20457;-85
2022/10/19 06:24:18;;;;;;;813.43;739.57;;;4.30;99.90;;;;;;5000982;28;20450;-86
2022/10/19 06:26:45;;;;;;;806.83;734.23;;;4.40;99.90;;;;;;5001670;28;20473;-86
2022/10/19 06:29:12;;;;;;;811.23;739.40;;;4.30;99.90;;;;;;5001819;28;20458;-86
2022/10/19 06:31:38;;;;;;;810.60;738.40;;;4.20;99.90;;;;;;5001611;28;20454;-86
2022/10/19 06:34:05;;;;;;;822.67;750.07;;;4.20;99.90;;;;;;5002425;28;20451;-85
2022/10/19 06:36:34;;;;;;;826.77;752.93;;;4.20;99.90;;;;;;5005032;28;20490;-86
2022/10/19 06:39:01;;;;;;;828.50;755.43;;;4.20;99.90;;;;;;5002922;28;20465;-87
2022/10/19 06:41:29;;;;;;;820.77;747.53;;;4.10;99.90;;;;;;5005485;28;20486;-86
2022/10/19 06:43:56;;;;;;;828.90;756.10;;;4.20;99.90;;;;;;5002634;28;20473;-84
2022/10/19 06:46:25;;;;;;;827.97;754.93;;;4.20;99.90;;;;;;4999306;28;20478;-83
2022/10/19 06:48:53;;;;;;;842.63;768.97;;;4.20;99.90;;;;;;4998042;28;20835;-84
2022/10/19 06:51:21;;;;;;;826.70;753.97;;;4.20;99.90;;;;;;4996801;28;20887;-83
2022/10/19 06:53:49;;;;;;;833.27;759.57;;;4.20;99.90;;;;;;4998530;28;20469;-84
2022/10/19 06:56:16;;;;;;;829.03;756.10;;;4.20;99.90;;;;;;4997721;28;20513;-83
2022/10/19 06:58:42;;;;;;;831.93;758.63;;;4.50;99.90;;;;;;4998711;28;20974;-83
2022/10/19 07:01:10;;;;;;;812.33;739.73;;;4.60;99.90;;;;;;4998625;28;20951;-84
2022/10/19 07:03:37;;;;;;;811.17;737.37;;;4.80;99.90;;;;;;4998793;28;20830;-84
2022/10/19 07:06:06;;;;;;;807.10;734.00;;;4.80;99.90;;;;;;4999479;28;20477;-84
2022/10/19 07:08:34;;;;;;;816.90;743.60;;;4.90;99.90;;;;;;4999635;28;20476;-84
2022/10/19 07:11:06;;;;;;;813.43;740.43;;;5.00;99.90;;;;;;4999304;28;20450;-84
2022/10/19 07:13:33;;;;;;;798.20;724.80;;;5.10;99.90;;;;;;4999404;28;20517;-85
2022/10/19 07:16:04;;;;;;;799.90;726.57;;;5.30;99.90;;;;;;4999017;28;20481;-84
2022/10/19 07:18:31;;;;;;;816.93;743.43;;;5.50;99.90;;;;;;4999271;28;20852;-84
2022/10/19 07:21:00;;;;;;;801.03;727.63;;;5.60;99.90;;;;;;4998061;28;20460;-85
2022/10/19 07:23:29;;;;;;;800.93;727.97;;;5.80;99.90;;;;;;4998329;28;20469;-85
2022/10/19 07:26:00;;;;;;;796.43;723.63;;;5.80;99.90;;;;;;4997492;28;20493;-84
2022/10/19 07:28:29;;;;;;;807.47;733.97;;;5.90;99.90;;;;;;4999072;28;20618;-84
2022/10/19 07:30:56;;;;;;;809.83;734.20;;;5.90;99.90;;;;;;4998751;28;20446;-85
2022/10/19 07:33:23;;;;;;;805.17;730.07;;;6.20;99.90;;;;;;4997087;28;20450;-84
2022/10/19 07:35:50;;;;;;;793.93;719.47;;;6.40;99.90;;;;;;4998042;28;20489;-84
2022/10/19 07:38:17;;;;;;;804.13;729.90;;;6.60;99.90;;;;;;4998343;28;20465;-84
2022/10/19 07:40:43;;;;;;;808.30;734.27;;;6.70;99.90;;;;;;4998270;28;20552;-84
2022/10/19 07:43:10;;;;;;;804.17;730.30;;;6.90;99.90;;;;;;4998166;28;20458;-81
2022/10/19 07:45:41;;;;;;;816.50;741.70;;;7.00;99.90;;;;;;4997224;28;20521;-85
2022/10/19 07:48:08;;;;;;;811.23;735.07;;;7.10;99.90;;;;;;4998378;28;20821;-84
2022/10/19 07:50:34;;;;;;;813.10;737.60;;;7.20;99.90;;;;;;4998571;28;20461;-85
2022/10/19 07:53:04;;;;;;;818.33;742.93;;;7.40;99.90;;;;;;4998346;28;20462;-84
2022/10/19 07:55:30;;;;;;;810.77;735.33;;;7.60;99.90;;;;;;4997416;28;20454;-83
2022/10/19 07:58:00;;;;;;;824.80;749.60;;;7.80;99.90;;;;;;4998127;28;20454;-85
2022/10/19 08:00:27;;;;;;;817.40;743.10;;;8.00;99.90;;;;;;4998099;28;20453;-85
2022/10/19 08:02:55;;;;;;;815.73;742.80;;;8.20;99.90;;;;;;4998721;28;20458;-85
2022/10/19 08:05:22;;;;;;;812.23;738.03;;;8.40;99.90;;;;;;4997785;28;20458;-85
2022/10/19 08:07:48;;;;;;;822.33;748.60;;;8.50;99.90;;;;;;4998390;28;20449;-85
2022/10/19 08:10:15;;;;;;;831.23;756.67;;;8.70;99.90;;;;;;4998205;28;20971;-85
2022/10/19 08:12:42;;;;;;;833.70;759.43;;;8.80;99.90;;;;;;4998072;28;20956;-83
2022/10/19 08:15:09;;;;;;;827.83;754.43;;;8.80;99.90;;;;;;4996846;28;20956;-83
2022/10/19 08:17:37;;;;;;;835.87;760.20;;;8.90;99.90;;;;;;4998306;28;20482;-83
2022/10/19 08:20:07;;;;;;;836.40;760.97;;;9.00;99.90;;;;;;4998751;28;20461;-83
2022/10/19 08:22:33;;;;;;;835.50;758.80;;;9.00;99.90;;;;;;4998819;28;20491;-83
2022/10/19 08:25:00;;;;;;;831.23;755.40;;;9.10;99.90;;;;;;5003753;28;20481;-82
2022/10/19 08:27:27;;;;;;;822.60;746.57;;;9.20;99.90;;;;;;5015232;28;20482;-83
2022/10/19 08:29:54;;;;;;;832.50;756.20;;;9.20;99.90;;;;;;5014382;28;20458;-82
2022/10/19 08:32:21;;;;;;;832.73;757.77;;;9.30;99.90;;;;;;5013966;28;20450;-84
2022/10/19 08:34:48;;;;;;;844.87;768.67;;;9.30;99.90;;;;;;5008668;28;20831;-83
2022/10/19 08:37:16;;;;;;;834.93;760.43;;;9.40;99.90;;;;;;4998027;28;20490;-83
2022/10/19 08:39:43;;;;;;;843.83;767.93;;;9.40;99.90;;;;;;4997433;28;20453;-83
2022/10/19 08:42:16;;;;;;;839.47;763.57;;;9.50;99.90;;;;;;4996970;28;20465;-83
2022/10/19 08:45:16;;;;;;;840.20;763.40;;;9.70;99.90;;;;;;4996747;28;20458;-83
2022/10/19 08:47:58;;;;;;;833.97;756.93;;;9.70;99.90;;;;;;4996899;28;20454;-83
2022/10/19 08:50:29;;;;;;;845.37;768.63;;;9.80;99.90;;;;;;4997124;28;20542;-82
2022/10/19 08:53:02;;;;;;;841.27;766.83;;;9.80;99.90;;;;;;4997891;28;20458;-82
2022/10/19 08:55:37;;;;;;;835.87;762.30;;;9.70;99.90;;;;;;4997160;28;20897;-84
2022/10/19 08:58:16;;;;;;;829.13;754.13;;;9.80;99.90;;;;;;4997361;28;20454;-83
2022/10/19 09:00:48;;;;;;;832.30;757.60;;;10.00;99.90;;;;;;4997077;28;20458;-83
2022/10/19 09:03:22;;;;;;;830.27;754.73;;;10.00;99.90;;;;;;4996647;28;20450;-84
2022/10/19 09:05:57;;;;;;;837.10;761.80;;;10.20;99.90;;;;;;4997020;28;20862;-84
2022/10/19 09:08:28;;;;;;;826.73;752.20;;;10.50;99.90;;;;;;4997459;28;20567;-83
2022/10/19 09:10:56;;;;;;;797.00;724.73;;;10.80;99.90;;;;;;4996545;28;20462;-83
2022/10/19 09:13:33;;;;;;;801.20;729.87;;;11.30;99.90;;;;;;4996598;28;20458;-83
2022/10/19 09:16:02;;;;;;;745.47;682.60;;;11.70;99.90;;;;;;4996690;28;20481;-83
2022/10/19 09:18:33;;;;;;;679.00;627.17;;;12.10;99.90;;;;;;4996768;28;20450;-84
2022/10/19 09:21:04;;;;;;;620.33;577.23;;;12.20;99.90;;;;;;4996885;28;20529;-84
2022/10/19 09:23:38;;;;;;;605.03;563.13;;;12.50;99.90;;;;;;4996904;28;20439;-84
2022/10/19 09:26:12;;;;;;;531.50;500.87;;;12.70;99.90;;;;;;4996730;28;20528;-84
2022/10/19 09:28:46;;;;;;;361.60;343.90;;;13.00;99.90;;;;;;4997408;28;20484;-84
2022/10/19 09:31:18;;;;;;;149.93;141.40;;;13.10;99.90;;;;;;4996835;28;20455;-84
2022/10/19 09:33:50;;;;;;;89.33;84.07;;;13.10;99.90;;;;;;4998311;28;20462;-84
2022/10/19 09:36:17;;;;;;;31.70;29.23;;;13.30;99.90;;;;;;5000003;28;20480;-84
2022/10/19 09:38:45;;;;;;;34.53;32.20;;;13.20;99.90;;;;;;4999847;28;20466;-84
2022/10/19 09:41:17;;;;;;;18.13;16.20;;;13.60;99.90;;;;;;4999163;28;20457;-84
2022/10/19 09:43:52;;;;;;;18.60;16.23;;;13.90;99.90;;;;;;4999068;28;20839;-84
2022/10/19 09:46:30;;;;;;;14.90;9.30;;;14.30;99.90;;;;;;4997625;28;20476;-85
2022/10/19 09:49:01;;;;;;;14.77;8.03;;;14.80;99.90;;;;;;4992215;28;20537;-85
2022/10/19 09:51:39;;;;;;;12.90;7.73;;;15.20;99.90;;;;;;4998714;28;20452;-85
2022/10/19 09:54:27;;;;;;;14.70;7.30;;;15.40;99.90;;;;;;4999748;28;20465;-85
2022/10/19 09:56:55;;;;;;;11.30;7.10;;;15.60;99.90;;;;;;4998699;28;20912;-85
2022/10/19 09:59:24;;;;;;;13.80;7.50;;;15.40;99.90;;;;;;5001144;28;20550;-84
2022/10/19 10:02:02;;;;;;;13.73;6.60;;;15.50;99.90;;;;;;5001078;28;20495;-85
2022/10/19 10:04:30;;;;;;;12.50;6.90;;;16.00;99.90;;;;;;5000552;28;20953;-84
2022/10/19 10:06:57;;;;;;;14.60;7.03;;;16.20;99.90;;;;;;5000617;28;20471;-85
2022/10/19 10:09:28;;;;;;;14.10;6.50;;;16.40;99.90;;;;;;5000542;28;20469;-85
2022/10/19 10:11:58;;;;;;;12.57;5.97;;;16.60;99.90;;;;;;5000582;28;20468;-85
2022/10/19 10:14:28;;;;;;;11.30;6.60;;;16.90;99.00;;;;;;5000340;28;20466;-84
2022/10/19 10:16:56;;;;;;;10.07;5.90;;;16.80;95.80;;;;;;5001102;28;20499;-86
2022/10/19 10:19:27;;;;;;;12.50;5.53;;;16.80;97.80;;;;;;5001307;28;20461;-85
2022/10/19 10:21:56;;;;;;;9.80;5.83;;;17.10;96.80;;;;;;5002043;28;20467;-85
2022/10/19 10:24:26;;;;;;;14.00;5.87;;;17.30;98.20;;;;;;5000566;28;20458;-85
2022/10/19 10:26:55;;;;;;;11.53;6.20;;;17.50;94.50;;;;;;4999632;28;20480;-86
2022/10/19 10:29:24;;;;;;;10.27;6.10;;;17.70;94.30;;;;;;5000257;28;20987;-85
2022/10/19 10:31:53;;;;;;;13.33;5.80;;;17.90;92.80;;;;;;5001218;28;20459;-85
2022/10/19 10:34:31;;;;;;;14.57;5.80;;;18.30;92.50;;;;;;5000813;28;20460;-85
2022/10/19 10:37:00;;;;;;;10.57;5.90;;;18.80;92.50;;;;;;4999542;28;20480;-86
2022/10/19 10:39:30;;;;;;;10.83;4.73;;;19.20;88.90;;;;;;5000483;28;20485;-85
2022/10/19 10:42:01;;;;;;;15.83;6.57;;;18.70;87.60;;;;;;4999008;28;20453;-86
2022/10/19 10:44:29;;;;;;;14.00;6.83;;;18.00;85.60;;;;;;4999405;28;20457;-85
2022/10/19 10:46:58;;;;;;;10.37;5.30;;;18.10;90.90;;;;;;5000165;28;20917;-85
2022/10/19 10:49:28;;;;;;;15.80;5.90;;;17.90;86.90;;;;;;4999727;28;20465;-85
2022/10/19 10:51:57;;;;;;;12.00;5.00;;;18.30;89.40;;;;;;4987657;28;20463;-83
2022/10/19 10:54:26;;;;;;;12.27;5.80;;;19.10;86.00;;;;;;4993941;28;20459;-84
2022/10/19 10:57:11;;;;;;;9.57;5.50;;;19.70;84.60;;;;;;4998192;28;20485;-83
2022/10/19 10:59:45;;;;;;;13.23;5.80;;;20.00;79.40;;;;;;4999928;28;20458;-84
2022/10/19 11:02:24;;;;;;;12.30;5.57;;;20.10;78.50;;;;;;5000494;28;20453;-84
2022/10/19 11:04:58;;;;;;;15.63;5.53;;;20.60;75.10;;;;;;5000113;28;20986;-84
2022/10/19 11:07:27;;;;;;;10.20;4.50;;;20.50;74.70;;;;;;5001079;28;20478;-84
2022/10/19 11:09:58;;;;;;;17.23;5.60;;;21.00;73.30;;;;;;5000734;28;20442;-85
2022/10/19 11:12:35;;;;;;;10.73;4.97;;;20.90;70.70;;;;;;5001974;28;20471;-84
2022/10/19 11:15:11;;;;;;;14.00;5.03;;;20.10;69.20;;;;;;4999083;28;20453;-84
2022/10/19 11:17:46;;;;;;;11.57;4.73;;;19.50;69.80;;;;;;5002149;28;20935;-84
2022/10/19 11:20:15;;;;;;;11.33;5.00;;;20.50;71.20;;;;;;5002967;28;20464;-84
2022/10/19 11:22:50;;;;;;;9.17;3.77;;;20.90;67.00;;;;;;5002069;28;20458;-84
2022/10/19 11:25:29;;;;;;;12.20;4.30;;;21.30;67.80;;;;;;5000169;28;20454;-86
2022/10/19 11:28:11;;;;;;;9.40;4.30;;;21.70;63.40;;;;;;5001452;28;20450;-85
2022/10/19 11:30:47;;;;;;;8.00;4.10;;;22.10;61.60;;;;;;5002080;28;20461;-84
2022/10/19 11:33:25;;;;;;;9.13;3.97;;;21.50;56.90;;;;;;5001542;28;20464;-84
2022/10/19 11:35:53;;;;;;;12.20;5.27;;;21.00;59.40;;;;;;4997902;28;20521;-84
2022/10/19 11:38:34;;;;;;;11.20;4.00;;;20.90;58.80;;;;;;4999050;28;20488;-84
2022/10/19 11:41:16;;;;;;;11.37;5.30;;;21.00;61.60;;;;;;5000028;28;20472;-85
2022/10/19 11:43:53;;;;;;;12.53;5.13;;;21.10;62.80;;;;;;5000591;28;20482;-85
2022/10/19 11:46:25;;;;;;;16.23;4.50;;;21.50;60.20;;;;;;5000736;28;20474;-86
2022/10/19 11:49:20;;;;;;;9.47;3.70;;;21.80;58.40;;;;;;4999018;28;20844;-85
2022/10/19 11:51:56;;;;;;;28.23;13.50;;;22.60;55.70;;;;;;4983616;28;20449;-84
2022/10/19 11:54:34;;;;;;;10.20;4.93;;;23.20;52.00;;;;;;4996353;28;20445;-84
2022/10/19 11:57:09;;;;;;;11.60;3.73;;;23.60;47.70;;;;;;4995129;28;21000;-84
2022/10/19 11:59:57;;;;;;;11.37;4.10;;;23.30;45.90;;;;;;4997234;28;20442;-84
2022/10/19 12:02:46;;;;;;;10.50;4.47;;;22.30;48.60;;;;;;4997505;28;20839;-83
2022/10/19 12:05:17;;;;;;;11.10;4.10;;;23.00;48.70;;;;;;4996707;28;20461;-86
2022/10/19 12:07:56;;;;;;;10.53;3.70;;;23.40;46.20;;;;;;4996617;28;20858;-83
2022/10/19 12:10:32;;;;;;;10.37;4.33;;;23.10;43.90;;;;;;4996172;28;20454;-84
2022/10/19 12:13:03;;;;;;;10.77;4.60;;;22.70;46.90;;;;;;4995626;28;20460;-84
2022/10/19 12:15:39;;;;;;;14.93;5.43;;;23.10;47.30;;;;;;4997252;28;20534;-84
2022/10/19 12:18:14;;;;;;;8.53;3.70;;;23.70;41.90;;;;;;4995215;28;20480;-83
2022/10/19 12:20:46;;;;;;;11.17;4.40;;;23.50;41.20;;;;;;4997650;28;20454;-84
2022/10/19 12:23:24;;;;;;;10.10;4.00;;;23.70;38.70;;;;;;4997185;28;20450;-84
2022/10/19 12:25:53;;;;;;;12.13;4.20;;;22.80;37.90;;;;;;4994536;28;20477;-86
2022/10/19 12:28:24;;;;;;;9.47;3.47;;;22.30;43.60;;;;;;4996602;28;20442;-85
2022/10/19 12:30:53;;;;;;;13.03;3.83;;;22.10;44.60;;;;;;4998376;28;20457;-84
2022/10/19 12:33:25;;;;;;;7.27;3.40;;;21.60;43.60;;;;;;4997960;28;20450;-85
2022/10/19 12:36:22;;;;;;;13.33;4.83;;;21.30;42.60;;;;;;4998966;28;20489;-85